Time;durP1;ratioP1;P1;durP2;ratioP2;P2;SDS_P1;SDS_P2;PMS_P1;PMS_P2;Temp;Humidity;BMP_temperature;BMP_pressure;BME280_temperature;BME280_humidity;BME280_pressure;Samples;Min_cycle;Max_cycle;Signal;HPM_P1;HPM_P2
2022/03/25 00:00:50;;;;;;;38.30;21.15;;;;;;;2.62;50.02;93543.50;5030958;28;20053;-80
2022/03/25 00:03:17;;;;;;;34.72;20.48;;;;;;;2.47;50.17;93525.53;5029610;28;20057;-80
2022/03/25 00:05:44;;;;;;;34.40;20.38;;;;;;;2.60;50.24;93545.38;5030592;28;20061;-80
2022/03/25 00:08:11;;;;;;;36.05;21.33;;;;;;;2.47;50.51;93541.53;5030875;28;20052;-79
2022/03/25 00:10:38;;;;;;;36.95;22.13;;;;;;;2.52;50.54;93541.88;5030713;28;20048;-80
2022/03/25 00:13:06;;;;;;;47.33;21.63;;;;;;;2.45;51.58;93540.88;5030766;28;20394;-79
2022/03/25 00:15:33;;;;;;;36.50;21.25;;;;;;;2.27;51.24;93513.84;5030488;28;20084;-79
2022/03/25 00:18:00;;;;;;;32.70;16.98;;;;;;;2.23;51.27;93512.56;5030617;28;20091;-80
2022/03/25 00:20:27;;;;;;;40.38;23.50;;;;;;;2.23;51.81;93525.25;5030377;28;20056;-79
2022/03/25 00:22:53;;;;;;;34.33;20.33;;;;;;;2.22;51.57;93520.34;5030302;28;20483;-80
2022/03/25 00:25:20;;;;;;;35.00;19.40;;;;;;;1.91;51.58;93482.78;5030506;28;20050;-79
2022/03/25 00:27:47;;;;;;;30.02;17.95;;;;;;;1.92;51.87;93487.72;5030228;28;20037;-80
2022/03/25 00:30:15;;;;;;;33.08;17.10;;;;;;;2.15;51.40;93517.59;5030523;28;20049;-80
2022/03/25 00:32:42;;;;;;;30.30;16.60;;;;;;;2.05;52.22;93492.38;5030164;28;20045;-80
2022/03/25 00:35:10;;;;;;;29.15;15.93;;;;;;;2.12;51.78;93508.56;5030521;28;20048;-79
2022/03/25 00:37:37;;;;;;;32.40;17.30;;;;;;;2.18;52.30;93506.38;5030422;28;20539;-80
2022/03/25 00:40:06;;;;;;;27.35;16.13;;;;;;;2.05;51.78;93496.63;5028297;28;20048;-80
2022/03/25 00:42:33;;;;;;;29.08;17.05;;;;;;;1.96;52.24;93483.94;5010639;28;20053;-79
2022/03/25 00:45:02;;;;;;;32.97;18.02;;;;;;;2.10;53.17;93514.72;5011190;28;20384;-79
2022/03/25 00:47:30;;;;;;;30.27;16.20;;;;;;;2.07;52.84;93504.88;5010816;28;20046;-79
2022/03/25 00:49:57;;;;;;;27.98;15.90;;;;;;;2.03;52.89;93501.06;5010662;28;20045;-79
2022/03/25 00:52:24;;;;;;;25.40;14.98;;;;;;;1.96;52.60;93506.75;5010298;28;20100;-79
2022/03/25 00:54:51;;;;;;;23.17;14.52;;;;;;;1.76;52.68;93485.84;5010013;28;20058;-79
2022/03/25 00:57:18;;;;;;;24.45;14.90;;;;;;;1.65;52.46;93473.44;5010318;28;20046;-79
2022/03/25 00:59:44;;;;;;;26.13;17.33;;;;;;;1.75;52.96;93484.25;5010032;28;20053;-79
2022/03/25 01:02:11;;;;;;;34.60;19.08;;;;;;;1.79;54.10;93505.81;5010107;28;20042;-79
2022/03/25 01:04:39;;;;;;;69.13;32.08;;;;;;;1.75;53.60;93504.53;5010111;28;20048;-79
2022/03/25 01:07:06;;;;;;;50.35;24.40;;;;;;;1.75;54.12;93503.75;5010070;28;20112;-78
2022/03/25 01:09:33;;;;;;;32.72;17.75;;;;;;;1.58;54.44;93479.09;5010150;28;20092;-79
2022/03/25 01:12:01;;;;;;;28.55;15.75;;;;;;;1.57;55.21;93479.25;5009680;28;20491;-79
2022/03/25 01:14:28;;;;;;;44.28;22.55;;;;;;;1.75;54.18;93493.63;5009719;28;20103;-79
2022/03/25 01:16:55;;;;;;;39.78;19.40;;;;;;;1.73;53.86;93491.22;5010092;28;20050;-78
2022/03/25 01:19:22;;;;;;;25.95;14.30;;;;;;;1.58;54.80;93471.50;5009510;28;20054;-79
2022/03/25 01:21:50;;;;;;;37.58;18.60;;;;;;;1.49;54.63;93458.94;5009819;28;20123;-79
2022/03/25 01:24:17;;;;;;;33.25;17.33;;;;;;;1.22;54.48;93417.59;5009584;28;20076;-79
2022/03/25 01:26:44;;;;;;;31.35;17.00;;;;;;;1.66;54.39;93487.69;5009084;28;20046;-79
2022/03/25 01:29:12;;;;;;;30.60;15.52;;;;;;;1.61;54.66;93480.53;5009322;28;20045;-80
2022/03/25 01:31:39;;;;;;;21.70;13.98;;;;;;;1.55;54.32;93473.53;5009523;28;20518;-79
2022/03/25 01:34:05;;;;;;;22.67;12.73;;;;;;;1.47;55.29;93486.91;5009540;28;20050;-79
2022/03/25 01:36:33;;;;;;;21.88;13.20;;;;;;;1.30;55.62;93465.75;5009321;28;20038;-79
2022/03/25 01:39:02;;;;;;;22.10;13.45;;;;;;;1.31;56.61;93485.84;5009416;28;20483;-79
2022/03/25 01:41:29;;;;;;;24.55;14.25;;;;;;;1.33;55.94;93486.50;5009445;28;20045;-79
2022/03/25 01:43:58;;;;;;;32.25;17.35;;;;;;;1.20;56.04;93466.63;5009405;28;20096;-79
2022/03/25 01:46:26;;;;;;;48.38;25.42;;;;;;;1.24;57.54;93489.91;5009201;28;20088;-79
2022/03/25 01:48:54;;;;;;;31.65;16.45;;;;;;;1.28;56.34;93485.34;5009743;28;20050;-79
2022/03/25 01:51:27;;;;;;;25.77;14.45;;;;;;;1.15;57.43;93478.91;5009429;28;20376;-78
2022/03/25 01:53:54;;;;;;;30.00;16.75;;;;;;;0.97;57.84;93489.03;5009278;28;20049;-78
2022/03/25 01:56:23;;;;;;;81.88;40.03;;;;;;;0.92;57.87;93494.53;5009300;28;20062;-78
2022/03/25 01:58:50;;;;;;;33.88;20.10;;;;;;;0.81;58.93;93477.03;5009121;28;20054;-79
2022/03/25 02:01:18;;;;;;;37.67;20.85;;;;;;;0.85;57.57;93480.88;5009443;28;20038;-79
2022/03/25 02:03:45;;;;;;;60.67;31.58;;;;;;;0.90;57.81;93481.25;5009384;28;20129;-79
2022/03/25 02:06:12;;;;;;;36.85;20.15;;;;;;;0.75;57.75;93464.97;5009777;28;20046;-79
2022/03/25 02:08:39;;;;;;;29.17;15.90;;;;;;;0.80;58.44;93496.44;5009978;28;20061;-78
2022/03/25 02:11:09;;;;;;;21.27;13.98;;;;;;;0.47;58.69;93448.06;5009039;28;20038;-78
2022/03/25 02:13:37;;;;;;;24.50;13.70;;;;;;;0.55;58.75;93472.66;5009473;28;20077;-79
2022/03/25 02:16:05;;;;;;;26.27;14.60;;;;;;;0.39;58.34;93441.22;5009705;28;20491;-78
2022/03/25 02:18:32;;;;;;;24.90;13.80;;;;;;;0.74;58.80;93493.72;5009898;28;20045;-79
2022/03/25 02:20:59;;;;;;;24.20;13.27;;;;;;;0.74;59.46;93489.44;5009669;28;20493;-79
2022/03/25 02:23:27;;;;;;;20.50;13.15;;;;;;;0.72;59.99;93490.53;5009786;28;20049;-79
2022/03/25 02:25:55;;;;;;;38.95;20.35;;;;;;;0.61;59.15;93477.13;5010675;28;20490;-78
2022/03/25 02:28:23;;;;;;;27.17;16.10;;;;;;;0.74;58.74;93491.97;5013415;28;20113;-79
2022/03/25 02:30:51;;;;;;;27.33;15.27;;;;;;;0.64;59.28;93469.28;5013672;28;20116;-79
2022/03/25 02:33:18;;;;;;;52.97;26.88;;;;;;;0.54;61.76;93486.22;5013371;28;20057;-78
2022/03/25 02:35:47;;;;;;;49.42;25.63;;;;;;;0.47;60.21;93475.88;5013144;28;20479;-78
2022/03/25 02:38:17;;;;;;;38.53;21.85;;;;;;;0.45;60.36;93470.19;5014033;28;20620;-79
2022/03/25 02:40:45;;;;;;;52.15;26.08;;;;;;;0.60;60.48;93487.41;5013748;28;20053;-79
2022/03/25 02:43:13;;;;;;;45.95;26.17;;;;;;;0.62;60.17;93491.38;5012686;28;20502;-79
2022/03/25 02:45:40;;;;;;;42.78;24.00;;;;;;;0.53;61.80;93487.16;5012798;28;20045;-79
2022/03/25 02:48:08;;;;;;;47.28;24.17;;;;;;;0.31;62.89;93476.50;5012589;28;20042;-78
2022/03/25 02:50:35;;;;;;;47.33;24.98;;;;;;;0.36;61.46;93466.75;5001827;28;20053;-79
2022/03/25 02:53:02;;;;;;;41.67;24.60;;;;;;;0.50;61.61;93479.84;5011963;28;20056;-79
2022/03/25 02:55:29;;;;;;;43.50;24.13;;;;;;;0.50;60.59;93482.38;5012383;28;20175;-79
2022/03/25 02:57:57;;;;;;;70.40;34.92;;;;;;;0.55;60.52;93492.88;5012067;28;20133;-79
2022/03/25 03:00:25;;;;;;;36.58;19.67;;;;;;;0.43;60.19;93479.66;5011903;28;20050;-78
2022/03/25 03:02:53;;;;;;;33.03;20.15;;;;;;;0.49;60.35;93490.91;5012373;28;20053;-78
2022/03/25 03:05:20;;;;;;;31.17;18.13;;;;;;;0.42;59.84;93480.59;5012128;28;20045;-78
2022/03/25 03:07:47;;;;;;;24.85;14.90;;;;;;;0.49;59.49;93484.13;5012409;28;20085;-78
2022/03/25 03:10:14;;;;;;;26.70;14.82;;;;;;;0.36;59.95;93458.38;5011941;28;20033;-78
2022/03/25 03:12:42;;;;;;;19.13;12.45;;;;;;;0.42;60.60;93489.88;5012135;28;20050;-78
2022/03/25 03:15:12;;;;;;;21.33;13.38;;;;;;;0.44;60.02;93493.06;5011896;28;20112;-78
2022/03/25 03:17:39;;;;;;;19.55;12.90;;;;;;;0.46;60.25;93486.94;5012019;28;20045;-78
2022/03/25 03:20:07;;;;;;;41.08;20.02;;;;;;;0.44;60.22;93491.34;5012199;28;20053;-78
2022/03/25 03:22:35;;;;;;;20.13;12.32;;;;;;;0.24;60.08;93458.56;5011672;28;20043;-78
2022/03/25 03:25:02;;;;;;;29.23;16.95;;;;;;;0.34;60.22;93477.94;5011540;28;20542;-78
2022/03/25 03:27:29;;;;;;;23.02;13.93;;;;;;;0.41;59.89;93491.59;5011681;28;20048;-79
2022/03/25 03:29:57;;;;;;;21.25;12.13;;;;;;;0.19;61.03;93473.34;5011905;28;20519;-79
2022/03/25 03:32:26;;;;;;;22.05;13.52;;;;;;;0.23;61.38;93494.09;5011843;28;20399;-79
2022/03/25 03:34:54;;;;;;;22.88;13.18;;;;;;;0.13;62.65;93486.53;5011903;28;20042;-79
2022/03/25 03:37:21;;;;;;;21.60;12.63;;;;;;;0.13;62.47;93481.47;5011546;28;20049;-79
2022/03/25 03:39:48;;;;;;;16.73;10.93;;;;;;;0.07;63.49;93469.41;5011730;28;20050;-79
2022/03/25 03:42:16;;;;;;;22.40;13.70;;;;;;;0.13;63.36;93486.53;5011402;28;20501;-79
2022/03/25 03:44:42;;;;;;;26.02;17.02;;;;;;;-0.10;63.70;93471.72;5011360;28;20048;-79
2022/03/25 03:47:10;;;;;;;33.90;19.58;;;;;;;-0.09;64.42;93485.16;5011543;28;20376;-78
2022/03/25 03:49:39;;;;;;;34.05;21.02;;;;;;;-0.20;65.19;93474.28;5011527;28;20046;-78
2022/03/25 03:52:07;;;;;;;36.85;21.48;;;;;;;-0.22;63.51;93462.72;5010973;28;20506;-78
2022/03/25 03:54:34;;;;;;;43.30;24.98;;;;;;;0.01;63.65;93488.47;5011422;28;20089;-79
2022/03/25 03:57:01;;;;;;;42.00;25.70;;;;;;;0.03;63.20;93486.56;5011393;28;20490;-78
2022/03/25 03:59:28;;;;;;;25.02;16.10;;;;;;;-0.03;63.32;93479.56;5011044;28;20517;-78
2022/03/25 04:01:54;;;;;;;27.60;17.20;;;;;;;-0.09;62.66;93465.75;5010937;28;20041;-79
2022/03/25 04:04:21;;;;;;;29.25;17.20;;;;;;;0.06;62.78;93495.59;5010819;28;20116;-78
2022/03/25 04:06:49;;;;;;;25.48;16.73;;;;;;;0.07;63.20;93495.47;5010821;28;20050;-78
2022/03/25 04:09:16;;;;;;;27.58;16.27;;;;;;;0.09;62.97;93490.28;5010934;28;20053;-78
2022/03/25 04:11:43;;;;;;;24.20;14.55;;;;;;;0.07;62.61;93485.38;5010740;28;20038;-78
2022/03/25 04:14:10;;;;;;;22.30;12.82;;;;;;;0.04;64.60;93487.38;5011067;28;20541;-79
2022/03/25 04:16:37;;;;;;;21.80;13.68;;;;;;;-0.25;65.38;93457.94;5011042;28;20042;-79
2022/03/25 04:19:04;;;;;;;26.00;13.50;;;;;;;-0.16;65.99;93473.09;5010758;28;20394;-79
2022/03/25 04:21:31;;;;;;;50.30;28.30;;;;;;;-0.22;64.09;93455.16;5010979;28;20049;-79
2022/03/25 04:23:59;;;;;;;32.17;15.15;;;;;;;-0.06;63.78;93483.16;5011029;28;20395;-79
2022/03/25 04:26:26;;;;;;;28.17;16.20;;;;;;;-0.47;63.31;93419.50;5010464;28;20057;-79
2022/03/25 04:28:53;;;;;;;28.75;16.92;;;;;;;0.01;64.39;93488.47;5010754;28;20108;-79
2022/03/25 04:31:20;;;;;;;30.00;16.00;;;;;;;-0.38;63.50;93441.38;5010502;28;20046;-81
2022/03/25 04:33:47;;;;;;;25.73;15.88;;;;;;;-0.07;65.60;93491.66;5010527;28;20479;-79
2022/03/25 04:36:14;;;;;;;25.58;15.90;;;;;;;-0.16;65.46;93495.00;5010848;28;20038;-79
2022/03/25 04:38:41;;;;;;;26.42;16.67;;;;;;;-0.21;65.42;93500.47;5010709;28;20627;-77
2022/03/25 04:41:10;;;;;;;27.88;16.35;;;;;;;-0.29;64.96;93478.44;5010474;28;20049;-78
2022/03/25 04:43:37;;;;;;;29.55;16.90;;;;;;;-0.12;65.19;93503.09;5010449;28;20077;-79
2022/03/25 04:46:04;;;;;;;25.83;14.27;;;;;;;-0.23;64.29;93482.13;5010220;28;20041;-78
2022/03/25 04:48:31;;;;;;;37.22;21.15;;;;;;;-0.05;64.25;93510.00;5009630;28;20052;-77
2022/03/25 04:50:58;;;;;;;24.35;14.43;;;;;;;-0.01;63.75;93505.47;5010148;28;20065;-78
2022/03/25 04:53:25;;;;;;;22.77;13.25;;;;;;;-0.33;63.72;93464.47;5010609;28;20038;-78
2022/03/25 04:55:52;;;;;;;26.08;15.88;;;;;;;0.02;63.41;93507.72;5010726;28;20049;-79
2022/03/25 04:58:20;;;;;;;34.83;19.42;;;;;;;0.03;63.37;93519.41;5010042;28;20042;-79
2022/03/25 05:00:48;;;;;;;34.50;19.63;;;;;;;0.08;63.30;93514.75;5010058;28;20057;-79
2022/03/25 05:03:15;;;;;;;29.17;16.92;;;;;;;0.09;63.76;93518.06;5010149;28;20193;-78
2022/03/25 05:05:42;;;;;;;28.35;17.25;;;;;;;0.06;64.18;93513.28;5010075;28;20108;-78
2022/03/25 05:08:09;;;;;;;30.35;18.17;;;;;;;-0.21;65.59;93499.66;5010058;28;20096;-79
2022/03/25 05:10:36;;;;;;;26.25;18.00;;;;;;;-0.19;65.11;93487.72;5009886;28;20076;-79
2022/03/25 05:13:03;;;;;;;33.70;20.63;;;;;;;0.05;64.80;93516.75;5009710;28;20050;-79
2022/03/25 05:15:31;;;;;;;33.03;21.15;;;;;;;0.15;65.17;93530.16;5009799;28;20101;-78
2022/03/25 05:17:58;;;;;;;42.90;23.63;;;;;;;0.24;65.12;93509.09;5009726;28;20042;-79
2022/03/25 05:20:25;;;;;;;33.13;22.00;;;;;;;0.06;65.83;93482.97;5009529;28;20041;-78
2022/03/25 05:22:52;;;;;;;30.00;18.92;;;;;;;0.37;65.42;93520.66;5009537;28;20045;-79
2022/03/25 05:25:20;;;;;;;35.65;18.70;;;;;;;0.55;64.10;93527.47;5009695;28;20092;-78
2022/03/25 05:27:49;;;;;;;38.90;19.25;;;;;;;0.66;62.67;93514.66;5009579;28;20046;-78
2022/03/25 05:30:17;;;;;;;35.30;19.02;;;;;;;0.70;63.07;93494.94;5009797;28;20096;-79
2022/03/25 05:32:45;;;;;;;42.00;21.40;;;;;;;0.97;61.80;93506.72;5008372;28;20100;-79
2022/03/25 05:35:12;;;;;;;32.28;17.45;;;;;;;1.15;61.58;93524.47;5008012;28;20559;-79
2022/03/25 05:37:39;;;;;;;23.60;14.18;;;;;;;1.39;60.45;93523.09;5008975;28;20495;-79
2022/03/25 05:40:09;;;;;;;26.15;13.45;;;;;;;1.45;60.62;93514.91;5009651;28;20050;-79
2022/03/25 05:42:36;;;;;;;21.13;13.40;;;;;;;1.60;59.19;93502.53;5009911;28;20096;-79
2022/03/25 05:45:06;;;;;;;24.08;12.98;;;;;;;1.90;59.58;93525.03;5009648;28;20487;-79
2022/03/25 05:47:33;;;;;;;28.73;13.63;;;;;;;2.02;60.08;93507.06;5009720;28;20053;-79
2022/03/25 05:50:01;;;;;;;42.00;22.38;;;;;;;2.22;59.47;93518.59;5010520;28;20046;-80
2022/03/25 05:52:27;;;;;;;27.70;14.48;;;;;;;2.49;60.13;93521.88;5012189;28;20050;-79
2022/03/25 05:54:54;;;;;;;55.40;26.90;;;;;;;2.64;58.16;93511.94;5009689;28;20092;-80
2022/03/25 05:57:21;;;;;;;38.97;20.67;;;;;;;2.91;56.71;93529.63;5009464;28;20050;-80
2022/03/25 05:59:48;;;;;;;46.10;25.20;;;;;;;3.14;57.01;93524.78;5010075;28;20081;-79
2022/03/25 06:02:15;;;;;;;49.75;22.48;;;;;;;3.36;55.19;93524.31;5013580;28;20045;-79
2022/03/25 06:04:42;;;;;;;91.93;43.15;;;;;;;3.51;54.92;93509.28;5012924;28;20046;-80
2022/03/25 06:07:12;;;;;;;82.05;34.88;;;;;;;3.72;54.43;93508.78;5013373;28;20053;-79
2022/03/25 06:09:39;;;;;;;67.25;31.60;;;;;;;4.08;54.40;93526.22;5013415;28;20057;-79
2022/03/25 06:12:06;;;;;;;42.58;23.83;;;;;;;4.35;52.99;93531.88;5013502;28;20100;-79
2022/03/25 06:14:34;;;;;;;39.65;20.95;;;;;;;4.45;52.93;93529.16;5012974;28;20509;-80
2022/03/25 06:17:01;;;;;;;43.88;24.25;;;;;;;4.71;53.29;93519.69;5012996;28;20133;-80
2022/03/25 06:19:28;;;;;;;49.75;26.48;;;;;;;5.08;52.48;93536.84;5013293;28;20478;-80
2022/03/25 06:21:56;;;;;;;49.08;31.70;;;;;;;5.27;51.67;93508.59;5030894;28;20049;-79
2022/03/25 06:24:24;;;;;;;50.92;28.65;;;;;;;5.27;50.12;93471.16;5032127;28;20053;-80
2022/03/25 06:26:52;;;;;;;53.30;32.13;;;;;;;5.95;49.43;93536.75;5032640;28;20053;-80
2022/03/25 06:29:19;;;;;;;45.28;25.88;;;;;;;5.71;49.06;93456.16;5032403;28;20041;-80
2022/03/25 06:31:46;;;;;;;38.97;20.20;;;;;;;6.24;47.70;93491.06;5032325;28;20052;-80
2022/03/25 06:34:20;;;;;;;112.38;46.38;;;;;;;6.03;48.19;93408.41;5032713;28;20045;-80
2022/03/25 06:36:47;;;;;;;36.17;21.88;;;;;;;6.67;45.83;93475.13;5032066;28;20072;-80
2022/03/25 06:39:14;;;;;;;38.03;22.33;;;;;;;7.05;46.31;93515.78;5032443;28;20045;-80
2022/03/25 06:41:42;;;;;;;31.10;20.63;;;;;;;7.52;45.48;93535.13;5032495;28;20506;-80
2022/03/25 06:44:09;;;;;;;33.75;20.70;;;;;;;7.46;44.62;93486.31;5032150;28;20038;-80
2022/03/25 06:46:36;;;;;;;65.38;35.30;;;;;;;7.85;44.99;93532.06;5032062;28;20045;-80
2022/03/25 06:49:04;;;;;;;41.17;22.48;;;;;;;8.04;45.10;93499.94;5031861;28;20049;-80
2022/03/25 06:51:31;;;;;;;39.72;23.85;;;;;;;8.15;43.85;93488.44;5032283;28;20045;-80
2022/03/25 06:53:58;;;;;;;35.00;20.30;;;;;;;8.21;43.41;93440.81;5032013;28;20053;-81
2022/03/25 06:56:26;;;;;;;41.53;23.30;;;;;;;8.98;43.37;93493.75;5032055;28;20552;-80
2022/03/25 06:58:55;;;;;;;32.20;18.60;;;;;;;9.49;41.31;93523.25;5031904;28;20049;-81
2022/03/25 07:01:23;;;;;;;60.63;41.20;;;;;;;9.69;37.89;93525.84;5029173;28;20553;-80
2022/03/25 07:03:50;;;;;;;19.58;11.50;;;;;;;9.52;35.01;93476.69;5039016;28;20056;-81
2022/03/25 07:06:23;;;;;;;17.60;10.05;;;;;;;9.77;34.76;93488.97;5032209;28;20050;-81
2022/03/25 07:08:55;;;;;;;23.30;12.98;;;;;;;10.14;35.24;93529.63;5031880;28;20049;-81
2022/03/25 07:11:22;;;;;;;31.50;15.32;;;;;;;10.41;34.41;93521.84;5031653;28;20391;-80
2022/03/25 07:13:50;;;;;;;20.23;10.32;;;;;;;10.31;34.01;93506.09;5030062;28;20056;-81
2022/03/25 07:16:19;;;;;;;17.80;10.10;;;;;;;10.62;33.91;93538.06;5010981;28;20132;-80
2022/03/25 07:18:46;;;;;;;21.10;10.57;;;;;;;9.87;33.67;93455.97;5011680;28;20042;-81
2022/03/25 07:21:13;;;;;;;26.95;12.63;;;;;;;10.82;34.62;93527.72;5011643;28;20100;-81
2022/03/25 07:23:40;;;;;;;22.73;11.60;;;;;;;11.04;34.67;93502.53;5011519;28;20469;-80
2022/03/25 07:26:07;;;;;;;26.33;11.23;;;;;;;11.03;34.88;93453.91;5011867;28;20407;-80
2022/03/25 07:28:35;;;;;;;29.67;11.85;;;;;;;11.68;34.73;93512.06;5012202;28;20060;-81
2022/03/25 07:31:01;;;;;;;46.35;12.88;;;;;;;11.47;31.94;93487.44;5011794;28;20451;-80
2022/03/25 07:33:30;;;;;;;27.77;11.10;;;;;;;11.89;31.60;93512.69;5011858;28;20046;-80
2022/03/25 07:35:57;;;;;;;22.60;11.60;;;;;;;11.74;32.06;93497.56;5012279;28;20073;-80
2022/03/25 07:38:24;;;;;;;31.13;12.25;;;;;;;12.15;32.49;93534.13;5011461;28;20053;-81
2022/03/25 07:40:51;;;;;;;28.38;12.35;;;;;;;12.21;31.92;93532.50;5011154;28;20053;-80
2022/03/25 07:43:18;;;;;;;32.90;12.75;;;;;;;12.61;32.14;93528.75;5011251;28;20042;-80
2022/03/25 07:45:45;;;;;;;31.63;13.35;;;;;;;12.67;31.56;93497.75;5011469;28;20109;-80
2022/03/25 07:48:12;;;;;;;30.25;11.98;;;;;;;12.47;32.45;93467.06;5011751;28;20140;-80
2022/03/25 07:50:41;;;;;;;24.75;11.82;;;;;;;12.22;30.94;93524.53;5011109;28;20056;-80
2022/03/25 07:53:09;;;;;;;26.80;12.98;;;;;;;11.95;33.10;93495.63;5011006;28;20066;-80
2022/03/25 07:55:36;;;;;;;25.98;12.43;;;;;;;12.37;32.75;93482.97;5011121;28;20050;-80
2022/03/25 07:58:02;;;;;;;27.42;13.73;;;;;;;12.94;31.22;93522.44;5011164;28;20046;-81
2022/03/25 08:00:29;;;;;;;24.48;11.80;;;;;;;12.96;32.08;93523.81;5011328;28;20057;-80
2022/03/25 08:02:56;;;;;;;23.45;11.93;;;;;;;12.92;30.93;93524.47;5011460;28;20395;-80
2022/03/25 08:05:24;;;;;;;22.25;10.43;;;;;;;12.67;31.35;93502.09;5011248;28;20049;-80
2022/03/25 08:07:54;;;;;;;18.67;10.82;;;;;;;12.48;31.03;93530.47;5011228;28;20049;-80
2022/03/25 08:10:23;;;;;;;22.90;11.60;;;;;;;12.02;31.27;93468.84;5011143;28;20108;-81
2022/03/25 08:12:50;;;;;;;15.82;10.23;;;;;;;12.54;31.52;93526.22;5010861;28;20104;-80
2022/03/25 08:15:18;;;;;;;17.00;10.38;;;;;;;12.26;31.04;93470.81;5008811;28;20041;-80
2022/03/25 08:17:54;;;;;;;22.67;10.52;;;;;;;12.80;31.16;93503.75;5009347;28;20050;-81
2022/03/25 08:20:26;;;;;;;18.20;9.85;;;;;;;12.45;30.90;93466.47;5009930;28;20046;-80
2022/03/25 08:22:56;;;;;;;18.33;10.07;;;;;;;12.63;31.05;93498.41;5010613;28;20049;-79
2022/03/25 08:28:08;;;;;;;17.63;10.65;;;;;;;12.87;30.90;93504.47;5010593;28;20152;-81
2022/03/25 08:30:34;;;;;;;16.52;10.40;;;;;;;12.72;30.81;93493.75;5010649;28;20495;-80
2022/03/25 08:33:03;;;;;;;16.65;11.10;;;;;;;12.96;30.41;93531.53;5010676;28;20046;-80
2022/03/25 08:35:30;;;;;;;17.48;10.02;;;;;;;12.96;31.88;93484.31;5010359;28;20052;-81
2022/03/25 08:37:59;;;;;;;19.17;9.95;;;;;;;13.34;30.52;93490.97;5010601;28;20053;-80
2022/03/25 08:40:28;;;;;;;18.88;10.88;;;;;;;13.33;29.16;93496.38;5010355;28;20042;-80
2022/03/25 08:42:54;;;;;;;18.40;9.45;;;;;;;13.52;30.42;93517.75;5010391;28;20402;-80
2022/03/25 08:45:21;;;;;;;19.05;10.13;;;;;;;12.90;28.78;93501.47;5010217;28;20045;-80
2022/03/25 08:47:49;;;;;;;33.10;9.00;;;;;;;12.51;29.15;93522.28;5010448;28;20038;-81
2022/03/25 08:50:18;;;;;;;15.32;8.68;;;;;;;12.59;29.67;93516.06;5010561;28;20058;-82
2022/03/25 08:52:46;;;;;;;16.65;9.43;;;;;;;12.55;29.94;93500.25;5010163;28;20042;-81
2022/03/25 08:55:15;;;;;;;22.65;10.07;;;;;;;12.57;28.94;93497.47;5010802;28;20050;-81
2022/03/25 08:57:42;;;;;;;17.83;9.40;;;;;;;12.38;29.10;93500.03;5011152;28;20760;-80
2022/03/25 09:00:11;;;;;;;16.75;9.23;;;;;;;12.63;29.28;93496.59;5010554;28;20050;-80
2022/03/25 09:02:39;;;;;;;13.85;7.63;;;;;;;12.49;28.52;93506.25;5010789;28;20045;-80
2022/03/25 09:05:07;;;;;;;20.08;8.30;;;;;;;12.83;28.71;93501.53;5010553;28;20054;-80
2022/03/25 09:07:36;;;;;;;19.50;8.13;;;;;;;13.19;29.33;93483.66;5010366;28;20514;-79
2022/03/25 09:10:03;;;;;;;16.65;8.55;;;;;;;13.17;27.45;93477.13;5010162;28;20077;-80
2022/03/25 09:12:32;;;;;;;13.70;8.32;;;;;;;12.78;27.12;93490.31;5010389;28;20833;-81
2022/03/25 09:14:59;;;;;;;13.93;7.00;;;;;;;12.46;27.01;93464.69;5010123;28;20046;-81
2022/03/25 09:17:26;;;;;;;13.68;7.82;;;;;;;13.26;27.37;93495.66;5009835;28;20441;-80
2022/03/25 09:19:53;;;;;;;16.33;8.13;;;;;;;13.68;27.12;93490.56;5009650;28;20042;-80
2022/03/25 09:22:20;;;;;;;16.42;8.80;;;;;;;13.49;27.97;93464.81;5009394;28;20137;-81
2022/03/25 09:24:47;;;;;;;12.73;6.22;;;;;;;13.74;25.99;93487.06;5009872;28;20092;-80
2022/03/25 09:27:14;;;;;;;14.25;6.20;;;;;;;13.76;26.00;93448.91;5009590;28;20042;-80
2022/03/25 09:29:43;;;;;;;11.65;6.50;;;;;;;14.06;26.23;93482.63;5009842;28;20041;-80
2022/03/25 09:32:10;;;;;;;17.38;6.85;;;;;;;14.23;25.90;93475.78;5009890;28;20041;-80
2022/03/25 09:37:21;;;;;;;10.20;5.68;;;;;;;13.71;25.71;93476.41;5009590;28;20053;-79
2022/03/25 09:39:48;;;;;;;11.43;7.20;;;;;;;13.89;26.64;93471.16;5009889;28;20041;-80
2022/03/25 09:42:16;;;;;;;14.18;7.32;;;;;;;13.98;27.23;93468.25;5009502;28;20571;-79
2022/03/25 09:44:45;;;;;;;16.58;7.22;;;;;;;13.95;26.54;93446.25;5009293;28;20054;-79
2022/03/25 09:47:14;;;;;;;16.85;6.90;;;;;;;13.93;27.35;93468.91;5009433;28;20570;-80
2022/03/25 09:49:41;;;;;;;13.68;7.05;;;;;;;14.22;27.55;93453.53;5009757;28;20408;-79
2022/03/25 09:52:09;;;;;;;19.50;8.02;;;;;;;14.26;27.68;93443.53;5009262;28;20050;-79
2022/03/25 09:54:35;;;;;;;22.15;8.77;;;;;;;14.64;27.13;93446.63;5009360;28;20038;-79
2022/03/25 09:57:03;;;;;;;13.75;7.30;;;;;;;14.27;26.72;93435.53;5009581;28;20046;-79
2022/03/25 09:59:30;;;;;;;11.07;5.78;;;;;;;14.62;26.99;93454.59;5009308;28;20046;-79
2022/03/25 10:01:58;;;;;;;14.88;7.03;;;;;;;14.83;26.93;93463.56;5009451;28;20096;-80
2022/03/25 10:04:41;;;;;;;13.93;6.85;;;;;;;14.52;26.65;93366.50;5009449;28;20068;-79
2022/03/25 10:07:19;;;;;;;12.02;7.15;;;;;;;14.48;25.69;93463.63;5009330;28;20491;-79
2022/03/25 10:09:48;;;;;;;11.00;6.75;;;;;;;14.57;26.26;93451.91;5009112;28;20542;-79
2022/03/25 10:12:23;;;;;;;12.82;6.22;;;;;;;14.58;25.74;93437.97;5009189;28;20052;-80
2022/03/25 10:14:50;;;;;;;10.60;5.63;;;;;;;14.78;26.59;93457.50;5009791;28;20100;-79
2022/03/25 10:17:19;;;;;;;11.98;6.10;;;;;;;14.94;26.45;93449.03;5009671;28;20049;-80
2022/03/25 10:19:51;;;;;;;18.90;7.00;;;;;;;14.84;26.25;93441.06;5009294;28;20056;-79
2022/03/25 10:22:18;;;;;;;10.02;5.00;;;;;;;14.77;24.78;93445.59;5009336;28;20391;-79
2022/03/25 10:24:48;;;;;;;8.27;4.07;;;;;;;14.59;24.08;93456.84;5009262;28;20050;-79
2022/03/25 10:27:20;;;;;;;11.60;6.75;;;;;;;14.62;24.27;93408.06;5009104;28;20538;-79
2022/03/25 10:29:47;;;;;;;9.82;6.18;;;;;;;14.78;25.53;93432.44;5008874;28;20522;-79
2022/03/25 10:32:18;;;;;;;10.50;5.13;;;;;;;15.10;25.85;93428.63;5009335;28;20137;-79
2022/03/25 10:35:01;;;;;;;10.73;5.00;;;;;;;15.17;25.57;93442.19;5008612;28;20037;-79
2022/03/25 10:37:28;;;;;;;11.45;5.55;;;;;;;14.70;24.39;93409.50;5007582;28;20057;-80
2022/03/25 10:39:55;;;;;;;6.43;4.05;;;;;;;14.55;24.02;93410.75;5008600;28;20096;-79
2022/03/25 10:42:22;;;;;;;8.55;4.07;;;;;;;14.63;23.59;93435.47;5009195;28;20053;-79
2022/03/25 10:44:49;;;;;;;11.48;4.97;;;;;;;14.53;23.47;93443.81;5008803;28;20048;-79
2022/03/25 10:47:26;;;;;;;9.20;4.07;;;;;;;14.34;23.44;93432.84;5010203;28;20042;-79
2022/03/25 10:49:55;;;;;;;9.85;4.72;;;;;;;14.56;23.82;93440.00;5012010;28;20053;-79
2022/03/25 10:52:30;;;;;;;8.63;3.88;;;;;;;14.89;23.20;93425.66;5012385;28;20045;-79
2022/03/25 10:55:19;;;;;;;8.65;4.97;;;;;;;14.93;24.75;93436.31;5012531;28;20096;-80
2022/03/25 10:57:53;;;;;;;12.23;5.45;;;;;;;15.02;24.71;93419.41;5012353;28;20137;-79
2022/03/25 11:00:20;;;;;;;9.25;4.63;;;;;;;15.40;24.85;93426.75;5013161;28;20054;-79
2022/03/25 11:02:47;;;;;;;7.82;4.50;;;;;;;15.26;23.99;93421.09;5012628;28;20478;-79
2022/03/25 11:05:16;;;;;;;7.50;3.97;;;;;;;14.56;23.00;93403.81;5012184;28;20495;-79
2022/03/25 11:07:45;;;;;;;7.53;3.92;;;;;;;15.00;22.79;93428.44;5029188;28;20533;-80
2022/03/25 11:10:13;;;;;;;5.95;3.50;;;;;;;15.08;22.64;93444.34;5032172;28;20045;-79
2022/03/25 11:12:45;;;;;;;7.75;4.13;;;;;;;14.82;22.32;93423.19;5031826;28;20479;-80
2022/03/25 11:15:13;;;;;;;8.98;4.15;;;;;;;14.89;22.64;93415.31;5031751;28;20482;-79
2022/03/25 11:17:42;;;;;;;8.32;4.43;;;;;;;14.21;22.21;93379.59;5031730;28;20049;-79
2022/03/25 11:20:10;;;;;;;7.25;4.70;;;;;;;14.81;22.84;93389.81;5032009;28;20147;-80
2022/03/25 11:22:44;;;;;;;7.63;4.10;;;;;;;14.93;22.34;93387.19;5008715;28;20050;-79
2022/03/25 11:25:14;;;;;;;10.82;4.90;;;;;;;14.55;22.10;93420.34;5010565;28;20046;-79
2022/03/25 11:27:47;;;;;;;8.85;4.63;;;;;;;14.56;22.92;93377.97;5012079;28;20399;-80
2022/03/25 11:30:16;;;;;;;10.23;4.10;;;;;;;14.73;22.38;93414.22;5000458;28;20050;-80
2022/03/25 11:32:50;;;;;;;6.18;3.67;;;;;;;14.94;21.92;93409.44;5011535;28;20494;-79